Red Bluff Municipal Airport
KRBL : now visible

Airfield :











YOU CAN JOIN US ON...

 
LOGIN :

Register | Disclaimer

   EN    FR    IT 

 









Legend :    VFR   Marginal VFR   IFR   Intensive IFR   Very Intensive IFR
Visi :
Ceiling :
>= 8 km
>= 3000ft
5 to 8 km
1000 to 3000 ft
1500m to 5 km
500 to 1000 ft
800 to 1500m
200 to 500 ft
< 800m
< 200 ft
Symbols :   Thunderstorms  Fog  Heavy snow  Heavy precipitations  Wind > 20 kt






- Airport Elevation : 352 ft


KRBL - Red Bluff Municipal

CURRENT METAR :
  • 080654Z AUTO 32005KT 10SM CLR 04/02 A3037 RMK AO2 SLP283 T00440022

EXPIRED METARs :
  • 080554Z AUTO 29007KT 10SM CLR 05/03 A3038 RMK AO2 SLP287 T00500028 10133 20044 51007
  • 080454Z AUTO 34004KT 10SM CLR 05/03 A3037 RMK AO2 SLP284 T00500028

TAF KRBL
Valid from the 08 at 06:00 until the 09 at 06:00 UTC


080528Z 0806/0906 33005KT P6SM SCT250
KZOA FIR / North America



MET'MAP, your aeronautical weather chart ! - Copyright ORBIFLY December 2007 - Disclaimer

ORBIFLY MET'MAP TEAM :

Programming & Development : Alexandra Zaïnal
Original concept : Baudouin d'Aumeries
Technical & hardware support : Manuel Goepfert
Assistance : Marc-Olivier Méhu




SOURCES & CREDITS :

   NOAA       Earth
Advisory